Time;durP1;ratioP1;P1;durP2;ratioP2;P2;SDS_P1;SDS_P2;PMS_P1;PMS_P2;Temp;Humidity;BMP_temperature;BMP_pressure;BME280_temperature;BME280_humidity;BME280_pressure;Samples;Min_cycle;Max_cycle;Signal;HPM_P1;HPM_P2
2023/09/19 00:00:34;;;;;;;1.80;1.10;;;21.10;92.00;;;;;;4979567;28;20110;-81
2023/09/19 00:03:00;;;;;;;2.53;1.17;;;21.10;92.00;;;;;;4979474;28;20054;-81
2023/09/19 00:05:27;;;;;;;2.28;1.08;;;21.00;91.90;;;;;;4996917;28;20077;-80
2023/09/19 00:07:54;;;;;;;2.42;1.05;;;21.00;91.90;;;;;;4979552;28;20023;-80
2023/09/19 00:10:26;;;;;;;2.88;1.10;;;21.10;91.90;;;;;;4979443;28;20031;-81
2023/09/19 00:12:55;;;;;;;1.67;0.90;;;21.00;91.90;;;;;;4979056;28;20442;-81
2023/09/19 00:15:22;;;;;;;2.28;0.88;;;21.10;92.00;;;;;;4979509;28;20065;-81
2023/09/19 00:17:47;;;;;;;2.67;1.02;;;21.00;91.90;;;;;;4979260;28;20130;-81
2023/09/19 00:20:17;;;;;;;1.33;0.90;;;21.00;91.90;;;;;;4996695;28;20471;-81
2023/09/19 00:22:42;;;;;;;1.60;1.02;;;20.90;91.90;;;;;;4979149;28;20104;-81
2023/09/19 00:25:09;;;;;;;2.55;1.10;;;21.00;92.00;;;;;;4996959;28;20474;-81
2023/09/19 00:27:35;;;;;;;2.80;1.10;;;21.00;92.00;;;;;;4979021;28;20062;-81
2023/09/19 00:30:01;;;;;;;2.00;1.10;;;21.10;92.00;;;;;;4979487;28;20030;-81
2023/09/19 00:32:32;;;;;;;2.30;1.10;;;21.10;92.00;;;;;;4996318;28;20030;-80
2023/09/19 00:34:57;;;;;;;2.58;1.10;;;21.10;91.90;;;;;;4996674;28;20483;-81
2023/09/19 00:37:23;;;;;;;2.08;1.10;;;21.10;91.90;;;;;;4978987;28;20030;-80
2023/09/19 00:39:48;;;;;;;2.08;1.10;;;21.10;91.90;;;;;;4979110;28;20019;-80
2023/09/19 00:42:23;;;;;;;2.05;1.00;;;21.10;91.90;;;;;;4978818;28;20499;-80
2023/09/19 00:44:51;;;;;;;3.80;1.00;;;21.10;91.90;;;;;;4978883;28;20042;-81
2023/09/19 00:47:17;;;;;;;2.80;1.10;;;21.10;91.90;;;;;;4978882;28;20057;-81
2023/09/19 00:49:49;;;;;;;2.10;0.98;;;21.10;92.00;;;;;;4978706;28;20031;-81
2023/09/19 00:52:15;;;;;;;1.95;0.90;;;21.10;92.00;;;;;;4978665;28;20027;-80
2023/09/19 00:54:40;;;;;;;3.15;1.15;;;21.10;92.00;;;;;;4978527;28;20026;-81
2023/09/19 00:57:07;;;;;;;2.47;1.20;;;21.10;92.10;;;;;;4978672;28;20383;-81
2023/09/19 00:59:35;;;;;;;4.68;1.17;;;21.10;92.00;;;;;;4996114;28;20423;-81
2023/09/19 01:02:02;;;;;;;1.75;0.90;;;21.00;92.00;;;;;;4978465;28;20402;-81
2023/09/19 01:04:27;;;;;;;2.30;0.90;;;21.00;92.00;;;;;;4978203;28;20030;-81
2023/09/19 01:06:53;;;;;;;1.45;0.90;;;21.00;92.00;;;;;;4978528;28;20033;-81
2023/09/19 01:09:20;;;;;;;2.40;1.00;;;21.00;92.00;;;;;;4978430;28;20026;-81
2023/09/19 01:11:50;;;;;;;2.22;0.90;;;21.00;92.00;;;;;;4978565;28;20030;-81
2023/09/19 01:14:41;;;;;;;2.40;0.93;;;21.00;92.00;;;;;;4995957;28;20050;-81
2023/09/19 01:17:27;;;;;;;2.50;1.10;;;21.00;92.00;;;;;;4978481;28;20037;-81
2023/09/19 01:20:17;;;;;;;2.95;1.20;;;21.00;92.00;;;;;;4978011;28;20038;-80
2023/09/19 01:23:10;;;;;;;2.83;1.10;;;21.00;92.00;;;;;;4977946;28;20038;-81
2023/09/19 01:25:55;;;;;;;1.95;1.05;;;21.10;92.10;;;;;;4995899;28;20019;-81
2023/09/19 01:28:43;;;;;;;1.90;0.90;;;21.10;92.00;;;;;;4978249;28;20026;-80
2023/09/19 01:31:11;;;;;;;2.63;0.90;;;21.10;92.00;;;;;;4978251;28;20491;-81
2023/09/19 01:33:59;;;;;;;2.67;1.10;;;21.10;91.90;;;;;;4977660;28;20022;-81
2023/09/19 01:36:36;;;;;;;2.55;1.02;;;21.10;91.90;;;;;;4978180;28;20081;-81
2023/09/19 01:39:10;;;;;;;2.22;1.02;;;21.10;92.00;;;;;;4995707;28;20026;-81
2023/09/19 01:42:14;;;;;;;2.85;1.13;;;21.10;92.00;;;;;;4977926;28;20509;-81
2023/09/19 01:45:02;;;;;;;1.73;1.00;;;21.10;92.00;;;;;;4977824;28;20037;-81
2023/09/19 01:47:38;;;;;;;3.05;1.10;;;21.00;92.10;;;;;;4977894;28;20022;-81
2023/09/19 01:50:23;;;;;;;2.70;1.20;;;21.00;92.10;;;;;;4995070;28;20073;-81
2023/09/19 01:52:56;;;;;;;2.72;1.10;;;21.00;92.00;;;;;;4977593;28;20030;-81
2023/09/19 01:55:23;;;;;;;2.58;1.00;;;21.00;92.00;;;;;;4977817;28;20089;-81
2023/09/19 01:58:07;;;;;;;1.30;0.90;;;21.00;92.00;;;;;;4977657;28;20026;-81
2023/09/19 02:00:35;;;;;;;3.25;1.13;;;21.00;92.00;;;;;;4977704;28;20030;-81
2023/09/19 02:03:02;;;;;;;2.25;1.10;;;21.00;92.00;;;;;;4994623;28;20105;-81
2023/09/19 02:05:28;;;;;;;3.30;1.20;;;21.00;92.00;;;;;;4977103;28;20037;-80
2023/09/19 02:07:55;;;;;;;2.67;1.00;;;21.00;92.00;;;;;;4977474;28;20023;-81
2023/09/19 02:10:21;;;;;;;2.83;1.25;;;21.00;92.00;;;;;;4977526;28;20029;-81
2023/09/19 02:12:47;;;;;;;2.55;1.10;;;21.00;92.00;;;;;;4977141;28;20034;-81
2023/09/19 02:15:15;;;;;;;2.97;1.20;;;21.00;92.00;;;;;;4977235;28;20438;-81
2023/09/19 02:17:42;;;;;;;3.30;0.93;;;21.00;92.00;;;;;;4977089;28;20078;-80
2023/09/19 02:20:10;;;;;;;3.08;1.20;;;21.00;92.00;;;;;;4976391;28;20034;-81
2023/09/19 02:22:36;;;;;;;1.52;0.90;;;21.10;92.00;;;;;;4976719;28;20501;-81
2023/09/19 02:25:01;;;;;;;2.70;1.13;;;21.00;92.00;;;;;;4976994;28;20062;-81
2023/09/19 02:27:27;;;;;;;2.33;1.10;;;21.10;91.90;;;;;;4976985;28;20026;-81
2023/09/19 02:29:52;;;;;;;2.20;1.17;;;21.10;91.90;;;;;;4977109;28;20018;-81
2023/09/19 02:32:18;;;;;;;2.28;1.10;;;21.10;91.90;;;;;;4976928;28;20026;-81
2023/09/19 02:34:44;;;;;;;3.45;1.35;;;21.00;91.90;;;;;;4994310;28;20030;-81
2023/09/19 02:37:10;;;;;;;1.58;1.05;;;21.00;92.00;;;;;;4976932;28;20022;-81
2023/09/19 02:39:35;;;;;;;2.28;1.00;;;21.00;92.00;;;;;;4977013;28;20037;-81
2023/09/19 02:42:01;;;;;;;3.20;1.20;;;21.00;92.00;;;;;;4995570;28;20022;-80
2023/09/19 02:44:27;;;;;;;2.55;1.20;;;21.00;92.30;;;;;;4993836;28;20516;-81
2023/09/19 02:46:53;;;;;;;1.60;1.02;;;21.00;92.00;;;;;;4975638;28;20030;-80
2023/09/19 02:49:18;;;;;;;2.78;1.05;;;21.00;92.00;;;;;;5000779;28;20502;-81
2023/09/19 02:51:44;;;;;;;2.47;1.10;;;21.10;92.00;;;;;;4976892;28;20085;-81
2023/09/19 02:54:10;;;;;;;2.33;1.00;;;21.10;92.00;;;;;;4993793;28;20031;-81
2023/09/19 02:56:37;;;;;;;1.73;0.90;;;21.00;92.00;;;;;;4976572;28;20027;-81
2023/09/19 02:59:02;;;;;;;2.55;1.15;;;21.00;92.00;;;;;;4976572;28;20077;-81
2023/09/19 03:01:28;;;;;;;2.10;1.10;;;21.00;92.00;;;;;;4976434;28;20402;-80
2023/09/19 03:03:54;;;;;;;2.25;1.13;;;21.00;92.00;;;;;;4976416;28;20026;-81
2023/09/19 03:06:21;;;;;;;3.95;1.38;;;21.00;92.00;;;;;;4976490;28;20026;-81
2023/09/19 03:08:49;;;;;;;2.50;1.10;;;21.00;92.00;;;;;;4976557;28;20030;-81
2023/09/19 03:11:16;;;;;;;2.13;1.10;;;21.00;92.00;;;;;;4976415;28;20058;-80
2023/09/19 03:13:42;;;;;;;3.17;1.25;;;21.00;92.00;;;;;;4976277;28;20390;-81
2023/09/19 03:16:08;;;;;;;2.35;1.10;;;21.00;92.00;;;;;;4976272;28;20426;-81
2023/09/19 03:18:37;;;;;;;2.25;0.90;;;21.00;92.00;;;;;;4976531;28;20027;-80
2023/09/19 03:21:02;;;;;;;1.70;1.00;;;21.10;91.90;;;;;;4975956;28;20118;-80
2023/09/19 03:23:29;;;;;;;2.38;1.10;;;21.00;91.90;;;;;;4976205;28;20130;-81
2023/09/19 03:25:56;;;;;;;3.75;1.20;;;21.00;91.90;;;;;;4996481;28;20031;-78
2023/09/19 03:28:21;;;;;;;2.40;1.10;;;21.10;91.90;;;;;;4978365;28;20049;-79
2023/09/19 03:31:06;;;;;;;2.55;1.33;;;20.90;91.90;;;;;;4976956;28;20035;-86
2023/09/19 03:33:33;;;;;;;1.58;1.00;;;20.90;92.00;;;;;;4977262;28;20038;-82
2023/09/19 03:36:00;;;;;;;1.70;0.95;;;21.00;92.00;;;;;;4993448;28;20034;-81
2023/09/19 03:38:29;;;;;;;2.47;1.10;;;21.00;92.00;;;;;;4997507;28;20049;-82
2023/09/19 03:40:54;;;;;;;3.08;1.20;;;20.90;92.00;;;;;;4995768;28;20494;-81
2023/09/19 03:43:20;;;;;;;1.63;0.93;;;21.00;92.00;;;;;;4978159;28;20038;-80
2023/09/19 03:45:49;;;;;;;2.65;1.20;;;20.90;92.00;;;;;;4979334;28;20109;-81
2023/09/19 03:48:14;;;;;;;2.70;1.08;;;20.90;92.00;;;;;;4978651;28;20026;-80
2023/09/19 03:50:40;;;;;;;1.85;0.90;;;21.00;92.00;;;;;;4979830;28;20053;-82
2023/09/19 03:53:07;;;;;;;3.15;1.20;;;21.00;92.00;;;;;;4979908;28;20541;-82
2023/09/19 03:55:35;;;;;;;2.45;1.20;;;20.90;92.00;;;;;;4980607;28;20419;-81
2023/09/19 03:58:01;;;;;;;2.00;1.02;;;20.90;92.00;;;;;;4977893;28;20490;-82
2023/09/19 04:00:27;;;;;;;2.30;1.20;;;20.90;92.00;;;;;;4976697;28;20042;-81
2023/09/19 04:02:53;;;;;;;2.33;1.10;;;20.90;92.00;;;;;;4977346;28;20085;-83
2023/09/19 04:05:18;;;;;;;2.33;1.13;;;21.00;92.00;;;;;;4977428;28;20588;-81
2023/09/19 04:07:44;;;;;;;2.20;1.17;;;20.90;92.00;;;;;;4994762;28;20022;-82
2023/09/19 04:10:14;;;;;;;3.80;1.40;;;21.00;92.00;;;;;;4977910;28;20022;-84
2023/09/19 04:12:40;;;;;;;1.48;1.08;;;21.00;92.00;;;;;;4976824;28;20521;-81
2023/09/19 04:15:06;;;;;;;3.33;1.15;;;21.00;92.00;;;;;;4977425;28;20026;-82
2023/09/19 04:17:35;;;;;;;1.92;1.02;;;21.00;91.90;;;;;;4978310;28;20018;-80
2023/09/19 04:20:00;;;;;;;3.35;1.30;;;21.00;91.90;;;;;;4976256;28;20033;-79
2023/09/19 04:22:26;;;;;;;3.00;1.13;;;21.00;91.90;;;;;;4993530;28;20030;-79
2023/09/19 04:24:51;;;;;;;3.25;1.33;;;21.00;91.90;;;;;;4993795;28;20099;-80
2023/09/19 04:27:18;;;;;;;2.92;1.20;;;20.90;91.90;;;;;;4975988;28;20126;-80
2023/09/19 04:29:44;;;;;;;3.00;1.10;;;21.00;91.90;;;;;;4976149;28;20085;-79
2023/09/19 04:32:10;;;;;;;3.38;1.15;;;21.00;91.90;;;;;;4975998;28;20031;-79
2023/09/19 04:34:35;;;;;;;2.08;1.05;;;20.90;91.90;;;;;;4975797;28;20034;-79
2023/09/19 04:37:02;;;;;;;1.98;1.10;;;21.00;91.90;;;;;;4993725;28;20037;-79
2023/09/19 04:39:28;;;;;;;2.78;1.10;;;20.80;91.90;;;;;;4975931;28;20035;-79
2023/09/19 04:41:54;;;;;;;2.67;1.15;;;20.90;91.90;;;;;;4975777;28;20701;-80
2023/09/19 04:44:20;;;;;;;1.63;1.00;;;20.90;91.90;;;;;;4992317;28;20026;-79
2023/09/19 04:46:48;;;;;;;1.85;1.05;;;20.90;91.90;;;;;;4992499;28;20549;-80
2023/09/19 04:49:14;;;;;;;1.92;1.00;;;20.90;91.90;;;;;;4979899;28;20025;-79
2023/09/19 04:51:40;;;;;;;2.20;1.13;;;20.80;91.90;;;;;;4995101;28;20030;-79
2023/09/19 04:54:06;;;;;;;2.95;1.10;;;20.90;91.90;;;;;;4994451;28;20401;-79
2023/09/19 04:56:32;;;;;;;3.10;1.40;;;20.90;91.90;;;;;;5012588;28;20626;-79
2023/09/19 04:59:00;;;;;;;3.40;1.40;;;20.90;91.90;;;;;;5007282;28;20073;-79
2023/09/19 05:01:26;;;;;;;4.55;1.33;;;20.90;91.90;;;;;;4974734;28;20019;-79
2023/09/19 05:03:52;;;;;;;2.53;1.05;;;20.90;91.90;;;;;;4984194;28;20029;-80
2023/09/19 05:06:21;;;;;;;3.15;1.33;;;20.90;91.90;;;;;;4994859;28;20038;-79
2023/09/19 05:08:51;;;;;;;3.80;1.30;;;21.00;91.90;;;;;;4994429;28;20030;-80
2023/09/19 05:11:18;;;;;;;3.17;1.30;;;21.00;91.80;;;;;;4994438;28;20045;-79
2023/09/19 05:13:44;;;;;;;3.47;1.38;;;21.00;91.80;;;;;;4994472;28;20057;-78
2023/09/19 05:16:10;;;;;;;3.30;1.20;;;21.00;91.80;;;;;;5012048;28;20084;-79
2023/09/19 05:18:36;;;;;;;2.95;1.13;;;21.00;91.70;;;;;;5012490;28;20112;-79
2023/09/19 05:21:04;;;;;;;5.55;1.30;;;21.00;91.80;;;;;;4994688;28;20116;-80
2023/09/19 05:23:31;;;;;;;2.95;1.15;;;21.00;91.80;;;;;;4994224;28;20029;-81
2023/09/19 05:25:59;;;;;;;3.28;1.25;;;20.90;91.80;;;;;;4994582;28;20072;-79
2023/09/19 05:28:25;;;;;;;3.88;1.35;;;21.00;91.80;;;;;;5011902;28;20104;-79
2023/09/19 05:30:51;;;;;;;3.47;1.20;;;20.90;91.80;;;;;;5011893;28;20459;-80
2023/09/19 05:33:18;;;;;;;2.42;1.10;;;20.90;91.80;;;;;;4993995;28;20819;-78
2023/09/19 05:35:43;;;;;;;1.98;1.08;;;20.90;91.80;;;;;;5012139;28;20037;-79
2023/09/19 05:38:09;;;;;;;3.92;1.20;;;20.90;91.80;;;;;;5011509;28;20033;-79
2023/09/19 05:40:35;;;;;;;1.58;1.05;;;20.90;91.80;;;;;;4994028;28;20030;-79
2023/09/19 05:43:03;;;;;;;4.60;1.20;;;20.90;91.80;;;;;;4994279;28;20049;-78
2023/09/19 05:45:29;;;;;;;2.92;1.33;;;20.90;91.80;;;;;;5011627;28;20063;-81
2023/09/19 05:48:04;;;;;;;2.78;1.25;;;21.00;91.80;;;;;;4993956;28;20490;-80
2023/09/19 05:50:30;;;;;;;2.47;1.10;;;21.00;91.70;;;;;;5010492;28;20433;-79
2023/09/19 05:52:55;;;;;;;3.67;1.30;;;20.90;91.90;;;;;;4993612;28;20026;-77
2023/09/19 05:55:24;;;;;;;2.40;1.20;;;21.10;91.60;;;;;;4993235;28;20516;-80
2023/09/19 05:57:51;;;;;;;2.25;1.02;;;20.90;91.60;;;;;;4993637;28;20041;-80
2023/09/19 06:00:18;;;;;;;3.35;1.23;;;21.00;91.60;;;;;;5009814;28;20120;-77
2023/09/19 06:02:44;;;;;;;3.10;1.10;;;21.10;91.40;;;;;;5011385;28;20018;-80
2023/09/19 06:05:10;;;;;;;2.88;1.20;;;21.10;91.40;;;;;;4993229;28;20030;-81
2023/09/19 06:07:37;;;;;;;2.53;1.10;;;21.10;91.20;;;;;;5010958;28;20049;-78
2023/09/19 06:10:09;;;;;;;2.85;1.08;;;21.20;91.20;;;;;;5010515;28;20032;-79
2023/09/19 06:12:44;;;;;;;2.88;1.20;;;21.10;91.20;;;;;;4992364;28;20036;-78
2023/09/19 06:15:15;;;;;;;3.90;1.38;;;21.20;91.20;;;;;;4992342;28;20355;-79
2023/09/19 06:17:51;;;;;;;3.17;1.00;;;21.20;91.20;;;;;;5009544;28;20076;-78
2023/09/19 06:20:17;;;;;;;2.65;1.25;;;21.10;91.20;;;;;;4992108;28;20081;-78
2023/09/19 06:22:44;;;;;;;3.65;1.30;;;21.20;91.20;;;;;;5009450;28;20026;-78
2023/09/19 06:25:11;;;;;;;4.80;1.10;;;21.20;91.20;;;;;;4993534;28;20026;-79
2023/09/19 06:27:44;;;;;;;3.13;1.40;;;21.20;91.10;;;;;;4993328;28;20053;-79
2023/09/19 06:30:11;;;;;;;2.20;1.00;;;21.20;91.00;;;;;;5002363;28;20037;-79
2023/09/19 06:32:37;;;;;;;2.92;1.05;;;21.20;91.10;;;;;;5002845;28;20027;-79
2023/09/19 06:35:03;;;;;;;3.03;1.42;;;21.20;91.00;;;;;;4971766;28;20019;-78
2023/09/19 06:37:29;;;;;;;3.10;1.27;;;21.20;91.00;;;;;;5002598;28;20030;-79
2023/09/19 06:39:55;;;;;;;3.00;1.10;;;21.30;91.00;;;;;;5003437;28;20035;-79
2023/09/19 06:42:22;;;;;;;3.78;1.08;;;21.20;90.90;;;;;;4971281;28;20046;-80
2023/09/19 06:44:48;;;;;;;3.25;1.23;;;21.30;90.90;;;;;;5002962;28;20090;-79
2023/09/19 06:47:16;;;;;;;1.85;1.00;;;21.20;90.80;;;;;;4971608;28;20031;-79
2023/09/19 06:49:43;;;;;;;2.55;1.10;;;21.30;90.80;;;;;;4970484;28;20027;-80
2023/09/19 06:52:09;;;;;;;2.28;1.00;;;21.30;90.90;;;;;;4970458;28;20023;-80
2023/09/19 06:54:35;;;;;;;2.42;1.10;;;21.30;90.90;;;;;;4969304;28;20900;-79
2023/09/19 06:57:01;;;;;;;2.35;1.08;;;21.30;90.90;;;;;;4969464;28;20081;-78
2023/09/19 06:59:27;;;;;;;3.08;1.20;;;21.30;90.90;;;;;;4969972;28;20041;-78
2023/09/19 07:01:52;;;;;;;2.97;1.20;;;21.30;90.80;;;;;;4972971;28;20031;-81
2023/09/19 07:04:19;;;;;;;4.82;1.40;;;21.30;90.80;;;;;;4973414;28;20019;-79
2023/09/19 07:06:51;;;;;;;4.22;1.52;;;21.20;90.80;;;;;;4957574;28;20031;-77
2023/09/19 07:09:19;;;;;;;5.38;1.40;;;21.20;90.80;;;;;;4972441;28;20022;-80
2023/09/19 07:11:45;;;;;;;4.60;1.77;;;21.20;90.90;;;;;;4973542;28;20069;-80
2023/09/19 07:14:13;;;;;;;3.28;1.42;;;21.20;91.00;;;;;;4971273;28;20466;-80
2023/09/19 07:16:40;;;;;;;3.58;1.25;;;21.20;91.00;;;;;;4972325;28;20023;-80
2023/09/19 07:19:06;;;;;;;4.25;1.38;;;21.20;91.00;;;;;;4973014;28;20023;-80
2023/09/19 07:21:32;;;;;;;2.60;1.27;;;21.10;91.00;;;;;;4956326;28;20056;-79
2023/09/19 07:24:00;;;;;;;3.30;1.30;;;21.10;91.00;;;;;;4972352;28;20431;-80
2023/09/19 07:26:27;;;;;;;2.20;1.10;;;21.10;91.00;;;;;;4972735;28;20081;-80
2023/09/19 07:28:53;;;;;;;4.20;1.40;;;21.20;91.00;;;;;;4973791;28;20047;-81
2023/09/19 07:31:19;;;;;;;4.47;1.20;;;21.20;91.00;;;;;;4972720;28;20499;-80
2023/09/19 07:33:45;;;;;;;2.75;1.40;;;21.20;91.00;;;;;;4972305;28;20019;-80
2023/09/19 07:36:13;;;;;;;4.55;1.48;;;21.20;90.90;;;;;;4956799;28;20031;-80
2023/09/19 07:38:39;;;;;;;3.28;1.17;;;21.20;90.90;;;;;;4973776;28;20102;-80
2023/09/19 07:41:05;;;;;;;3.25;1.10;;;21.30;90.80;;;;;;4972313;28;20050;-80
2023/09/19 07:43:31;;;;;;;3.83;1.20;;;21.30;90.80;;;;;;4972502;28;20019;-80
2023/09/19 07:45:57;;;;;;;3.22;1.30;;;21.30;90.70;;;;;;4972515;28;20051;-80
2023/09/19 07:48:24;;;;;;;4.10;1.17;;;21.40;90.70;;;;;;4972558;28;20467;-80
2023/09/19 07:50:49;;;;;;;3.00;1.20;;;21.50;90.60;;;;;;4973795;28;20030;-80
2023/09/19 07:53:17;;;;;;;2.63;1.15;;;21.50;90.50;;;;;;4972402;28;20030;-81
2023/09/19 07:55:43;;;;;;;4.05;1.30;;;21.50;90.40;;;;;;4972944;28;20026;-79
2023/09/19 07:58:09;;;;;;;3.88;1.27;;;21.60;90.40;;;;;;4956233;28;20031;-79
2023/09/19 08:00:34;;;;;;;4.43;1.33;;;21.60;90.40;;;;;;4972086;28;20034;-79
2023/09/19 08:03:01;;;;;;;2.45;1.10;;;21.50;90.40;;;;;;4972306;28;20031;-80
2023/09/19 08:05:26;;;;;;;3.17;1.10;;;21.50;90.40;;;;;;4972508;28;20500;-80
2023/09/19 08:07:53;;;;;;;2.83;1.30;;;21.50;90.40;;;;;;4972511;28;20051;-80
2023/09/19 08:10:19;;;;;;;2.75;1.20;;;21.50;90.40;;;;;;4972342;28;20031;-80
2023/09/19 08:12:46;;;;;;;2.88;1.30;;;21.50;90.50;;;;;;4973611;28;20070;-80
2023/09/19 08:15:16;;;;;;;3.25;1.30;;;21.50;90.50;;;;;;4972330;28;20027;-80
2023/09/19 08:17:42;;;;;;;2.72;1.25;;;21.40;90.60;;;;;;4974197;28;20077;-80
2023/09/19 08:20:16;;;;;;;4.47;1.35;;;21.50;90.60;;;;;;4976127;28;20109;-79
2023/09/19 08:22:52;;;;;;;3.63;1.13;;;21.40;90.60;;;;;;4975710;28;20085;-80
2023/09/19 08:25:18;;;;;;;3.42;1.40;;;21.50;90.60;;;;;;4975775;28;20367;-80
2023/09/19 08:27:49;;;;;;;3.78;1.10;;;21.50;90.60;;;;;;4976120;28;20027;-80
2023/09/19 08:30:16;;;;;;;3.47;1.20;;;21.40;90.60;;;;;;4977176;28;20076;-80
2023/09/19 08:32:45;;;;;;;3.67;1.00;;;21.40;90.70;;;;;;4976761;28;20074;-80
2023/09/19 08:35:11;;;;;;;2.50;1.10;;;21.40;90.60;;;;;;4975929;28;20029;-80
2023/09/19 08:37:37;;;;;;;1.77;0.93;;;21.40;90.60;;;;;;4977101;28;20026;-80
2023/09/19 08:40:03;;;;;;;2.95;1.10;;;21.40;90.70;;;;;;4975292;28;20051;-80
2023/09/19 08:42:28;;;;;;;3.17;1.30;;;21.40;90.70;;;;;;4976289;28;20034;-80
2023/09/19 08:44:56;;;;;;;3.17;1.10;;;21.40;90.60;;;;;;4975511;28;20023;-80
2023/09/19 08:47:35;;;;;;;2.78;1.02;;;21.40;90.60;;;;;;4975690;28;20494;-80
2023/09/19 08:50:11;;;;;;;3.28;1.10;;;21.40;90.60;;;;;;4976813;28;20026;-80
2023/09/19 08:52:43;;;;;;;3.05;1.00;;;21.50;90.60;;;;;;4976437;28;20043;-80
2023/09/19 08:55:20;;;;;;;2.95;1.15;;;21.50;90.50;;;;;;4976442;28;20059;-80
2023/09/19 08:57:48;;;;;;;3.30;1.30;;;21.50;90.80;;;;;;4975406;28;20027;-80
2023/09/19 09:00:17;;;;;;;2.53;1.20;;;21.50;90.60;;;;;;4975250;28;20027;-80
2023/09/19 09:02:43;;;;;;;2.22;1.10;;;21.40;90.60;;;;;;4976128;28;20407;-80
2023/09/19 09:05:10;;;;;;;2.95;1.15;;;21.40;90.60;;;;;;4975006;28;20039;-81
2023/09/19 09:07:43;;;;;;;2.47;0.82;;;21.40;90.60;;;;;;4958992;28;20033;-80
2023/09/19 09:10:09;;;;;;;4.03;1.38;;;21.40;90.90;;;;;;4975397;28;20101;-80
2023/09/19 09:12:41;;;;;;;3.20;1.40;;;21.50;90.70;;;;;;4974724;28;20073;-80
2023/09/19 09:15:08;;;;;;;3.53;1.20;;;21.50;90.60;;;;;;4976327;28;20022;-81
2023/09/19 09:17:34;;;;;;;3.95;1.10;;;21.50;90.60;;;;;;4958673;28;20053;-80
2023/09/19 09:20:00;;;;;;;3.17;1.15;;;21.50;90.60;;;;;;4974878;28;20023;-80
2023/09/19 09:22:25;;;;;;;3.33;1.20;;;21.50;90.60;;;;;;4974497;28;20026;-80
2023/09/19 09:25:03;;;;;;;4.18;1.35;;;21.40;90.60;;;;;;4976196;28;20023;-80
2023/09/19 09:27:28;;;;;;;2.75;1.10;;;21.40;90.60;;;;;;4974586;28;20034;-80
2023/09/19 09:29:54;;;;;;;3.13;1.10;;;21.40;90.60;;;;;;4957532;28;20395;-80
2023/09/19 09:32:21;;;;;;;3.30;1.08;;;21.40;90.60;;;;;;4974513;28;20448;-79
2023/09/19 09:34:50;;;;;;;2.50;1.10;;;21.40;90.60;;;;;;4975615;28;20019;-80
2023/09/19 09:37:20;;;;;;;3.42;1.20;;;21.50;90.70;;;;;;4974707;28;20031;-79
2023/09/19 09:40:17;;;;;;;2.25;1.05;;;21.50;90.60;;;;;;4975552;28;20483;-80
2023/09/19 09:42:46;;;;;;;3.35;1.30;;;21.50;90.60;;;;;;4974339;28;20027;-79
2023/09/19 09:45:14;;;;;;;2.72;1.10;;;21.50;90.50;;;;;;4974551;28;20056;-80
2023/09/19 09:47:55;;;;;;;3.47;1.20;;;21.50;90.40;;;;;;4975744;28;20019;-80
2023/09/19 09:50:29;;;;;;;2.33;1.20;;;21.60;90.40;;;;;;4974503;28;20023;-80
2023/09/19 09:53:06;;;;;;;3.38;1.00;;;21.60;90.40;;;;;;4974375;28;20057;-80
2023/09/19 09:55:59;;;;;;;5.00;1.30;;;21.60;90.40;;;;;;4958242;28;20050;-79
2023/09/19 09:58:29;;;;;;;2.15;1.05;;;21.70;90.40;;;;;;4974337;28;20422;-79
2023/09/19 10:00:58;;;;;;;2.20;0.98;;;21.60;90.30;;;;;;4973852;28;20022;-79
2023/09/19 10:03:43;;;;;;;3.90;1.30;;;21.60;90.30;;;;;;4974414;28;20042;-80
2023/09/19 10:06:28;;;;;;;2.65;1.10;;;21.60;90.30;;;;;;4974378;28;20104;-80
2023/09/19 10:09:29;;;;;;;4.72;1.20;;;21.70;90.40;;;;;;4974040;28;20045;-80
2023/09/19 10:12:05;;;;;;;2.90;1.25;;;21.60;90.30;;;;;;4974908;28;20030;-80
2023/09/19 10:14:35;;;;;;;2.90;1.13;;;21.70;90.30;;;;;;4973990;28;20089;-80
2023/09/19 10:17:04;;;;;;;2.28;1.17;;;21.70;90.30;;;;;;4973854;28;20388;-79
2023/09/19 10:19:36;;;;;;;2.80;1.00;;;21.60;90.30;;;;;;4974031;28;20487;-79
2023/09/19 10:22:04;;;;;;;2.97;1.00;;;21.70;90.30;;;;;;4973521;28;20035;-80
2023/09/19 10:24:31;;;;;;;2.20;1.00;;;21.70;90.40;;;;;;4973682;28;20042;-81
2023/09/19 10:26:57;;;;;;;3.47;1.20;;;21.70;90.40;;;;;;4973400;28;20031;-80
2023/09/19 10:29:25;;;;;;;4.05;1.20;;;21.70;90.40;;;;;;4973839;28;20035;-80
2023/09/19 10:31:53;;;;;;;3.05;1.10;;;21.70;90.40;;;;;;4973449;28;20027;-80
2023/09/19 10:34:20;;;;;;;2.75;1.35;;;21.70;90.30;;;;;;4974494;28;20037;-79
2023/09/19 10:36:46;;;;;;;3.00;1.20;;;21.70;90.30;;;;;;4973528;28;20058;-79
2023/09/19 10:39:18;;;;;;;3.97;1.20;;;21.70;90.30;;;;;;4973466;28;20115;-80
2023/09/19 10:41:53;;;;;;;2.92;1.30;;;21.70;90.30;;;;;;4973413;28;20077;-79
2023/09/19 10:44:26;;;;;;;3.13;1.40;;;21.70;90.30;;;;;;4973449;28;20046;-80
2023/09/19 10:46:53;;;;;;;3.58;1.30;;;21.60;90.30;;;;;;4973446;28;20110;-80
2023/09/19 10:49:21;;;;;;;4.15;1.52;;;21.60;90.40;;;;;;4974594;28;20539;-80
2023/09/19 10:51:49;;;;;;;4.15;1.52;;;21.60;90.40;;;;;;4973324;28;20050;-79
2023/09/19 10:54:18;;;;;;;2.17;1.20;;;21.60;90.40;;;;;;4973106;28;20212;-80
2023/09/19 10:56:49;;;;;;;1.77;1.15;;;21.60;90.40;;;;;;4973256;28;20395;-79
2023/09/19 10:59:19;;;;;;;3.55;1.20;;;21.60;90.40;;;;;;4973359;28;20118;-79
2023/09/19 11:01:51;;;;;;;3.35;1.30;;;21.60;90.40;;;;;;4972997;28;20042;-80
2023/09/19 11:04:31;;;;;;;3.03;1.30;;;21.60;90.40;;;;;;4973095;28;20023;-80
2023/09/19 11:07:14;;;;;;;2.22;1.00;;;21.60;90.40;;;;;;4973933;28;20507;-80
2023/09/19 11:09:47;;;;;;;2.55;1.20;;;21.60;90.40;;;;;;4972961;28;20147;-80
2023/09/19 11:12:36;;;;;;;2.47;1.23;;;21.60;90.40;;;;;;4972935;28;20077;-79
2023/09/19 11:15:07;;;;;;;3.42;1.30;;;21.60;90.40;;;;;;4972785;28;20045;-80
2023/09/19 11:17:46;;;;;;;2.90;1.17;;;21.60;90.40;;;;;;4974296;28;20131;-80
2023/09/19 11:22:50;;;;;;;2.65;1.23;;;21.60;90.40;;;;;;4974115;28;20509;-80
2023/09/19 11:25:39;;;;;;;3.70;1.35;;;21.60;90.40;;;;;;4972776;28;20035;-79
2023/09/19 11:28:08;;;;;;;2.72;1.38;;;21.60;90.30;;;;;;4973034;28;20050;-80
2023/09/19 11:30:44;;;;;;;3.25;1.20;;;21.60;90.30;;;;;;4972776;28;20035;-80
2023/09/19 11:33:20;;;;;;;3.25;1.20;;;21.60;90.30;;;;;;4972449;28;20058;-80
2023/09/19 11:36:05;;;;;;;2.33;1.20;;;21.70;90.20;;;;;;4973932;28;20026;-80
2023/09/19 11:38:45;;;;;;;2.70;1.10;;;21.70;90.20;;;;;;4972841;28;20062;-79
2023/09/19 11:41:20;;;;;;;;;;;21.70;90.20;;;;;;4974139;28;20034;-79
2023/09/19 11:43:46;;;;;;;3.17;1.30;;;21.60;90.20;;;;;;4973752;28;20310;-79
2023/09/19 11:46:16;;;;;;;3.03;1.20;;;21.70;90.30;;;;;;4972577;28;20030;-80
2023/09/19 11:48:44;;;;;;;3.40;1.30;;;21.60;90.30;;;;;;4956505;28;20085;-79
2023/09/19 11:51:21;;;;;;;3.63;1.30;;;21.60;90.50;;;;;;4973916;28;20023;-79
2023/09/19 11:53:48;;;;;;;3.47;1.35;;;21.60;90.40;;;;;;4976318;28;20288;-79
2023/09/19 11:56:20;;;;;;;2.67;1.20;;;21.60;90.40;;;;;;4976601;28;20049;-79
2023/09/19 11:58:49;;;;;;;2.83;1.17;;;21.50;90.30;;;;;;4976499;28;20031;-80
2023/09/19 12:01:21;;;;;;;2.15;1.05;;;21.50;90.40;;;;;;4976411;28;20483;-79
2023/09/19 12:03:52;;;;;;;2.92;1.40;;;21.50;90.40;;;;;;4976161;28;20026;-79
2023/09/19 12:06:18;;;;;;;3.35;1.20;;;21.50;90.40;;;;;;4976444;28;20038;-79
2023/09/19 12:08:46;;;;;;;3.10;1.20;;;21.50;90.40;;;;;;4976409;28;20030;-79
2023/09/19 12:11:16;;;;;;;5.43;1.23;;;21.50;90.50;;;;;;4977420;28;20069;-80
2023/09/19 12:13:48;;;;;;;2.42;1.13;;;21.50;90.50;;;;;;4975978;28;20126;-80
2023/09/19 12:16:17;;;;;;;3.63;1.30;;;21.50;90.50;;;;;;4976021;28;20138;-79
2023/09/19 12:18:47;;;;;;;3.30;1.30;;;21.50;90.40;;;;;;4977397;28;20071;-79
2023/09/19 12:21:36;;;;;;;3.78;1.30;;;21.50;90.40;;;;;;4975602;28;20018;-81
2023/09/19 12:24:16;;;;;;;3.60;1.05;;;21.60;90.40;;;;;;4975557;28;20098;-79
2023/09/19 12:26:47;;;;;;;2.97;1.10;;;21.50;90.30;;;;;;4976159;28;20046;-80
2023/09/19 12:29:14;;;;;;;3.00;1.20;;;21.60;90.30;;;;;;4975851;28;20025;-79
2023/09/19 12:31:58;;;;;;;4.43;1.05;;;21.50;90.30;;;;;;4975897;28;20027;-80
2023/09/19 12:34:28;;;;;;;3.35;1.15;;;21.50;90.30;;;;;;4977277;28;20030;-79
2023/09/19 12:37:30;;;;;;;2.40;1.10;;;21.50;90.30;;;;;;4975622;28;20022;-80
2023/09/19 12:40:22;;;;;;;2.72;0.98;;;21.50;90.30;;;;;;4959715;28;20035;-79
2023/09/19 12:42:48;;;;;;;3.50;1.30;;;21.50;90.40;;;;;;4975466;28;20078;-80
2023/09/19 12:45:17;;;;;;;3.78;1.30;;;21.50;90.40;;;;;;4975646;28;20023;-79
2023/09/19 12:48:20;;;;;;;3.13;1.30;;;21.50;90.40;;;;;;4976808;28;20029;-80
2023/09/19 12:51:07;;;;;;;3.85;1.20;;;21.50;90.40;;;;;;4975578;28;20035;-79
2023/09/19 12:53:40;;;;;;;3.17;1.17;;;21.50;90.40;;;;;;4976538;28;20037;-80
2023/09/19 12:56:08;;;;;;;3.80;1.40;;;21.50;90.40;;;;;;4975425;28;20027;-80
2023/09/19 12:58:34;;;;;;;3.58;1.20;;;21.40;90.40;;;;;;4975457;28;20054;-80
2023/09/19 13:01:05;;;;;;;3.60;1.10;;;21.50;90.40;;;;;;4974881;28;20031;-80
2023/09/19 13:03:34;;;;;;;3.05;1.20;;;21.40;90.40;;;;;;4974708;28;20417;-79